Date,TemperatureHighF,TemperatureAvgF,TemperatureLowF,DewpointHighF,DewpointAvgF,DewpointLowF,HumidityHigh,HumidityAvg,HumidityLow,PressureMaxIn,PressureMinIn,WindSpeedMaxMPH,WindSpeedAvgMPH,GustSpeedMaxMPH,PrecipitationSumIn
2013-1-1,32.4,27.8,18.6,30.0,23.1,12.9,91,82,72,30.22,30.07,10,3,12,0.02
2013-1-2,25.2,18.5,12.2,12.9,8.5,4.5,81,66,43,30.32,30.19,7,2,8,0.00
2013-1-3,31.9,23.2,12.7,25.1,16.1,6.0,81,74,66,30.35,30.24,14,3,16,0.00
2013-1-4,31.5,26.9,22.7,22.1,18.9,15.4,82,72,62,30.40,30.34,18,5,20,0.00
2013-1-5,39.7,29.7,19.3,30.6,23.7,16.0,88,79,57,30.37,30.15,15,3,19,0.00
2013-1-6,36.7,31.7,26.7,31.1,25.5,20.1,82,77,72,30.40,30.04,17,5,23,0.00
2013-1-7,37.1,28.1,18.9,26.6,21.9,15.7,89,78,62,30.48,30.24,14,3,16,0.00
2013-1-8,44.2,34.2,23.7,30.8,25.9,19.6,87,72,57,30.31,30.21,10,2,10,0.00
2013-1-9,50.6,42.2,30.8,40.2,34.8,27.1,91,76,56,30.52,30.20,16,3,17,0.10
2013-1-10,45.7,37.0,27.6,41.4,31.6,25.0,91,81,62,30.53,30.03,20,5,23,0.10
2013-1-11,58.6,53.5,45.8,52.1,48.0,41.5,92,82,68,30.04,29.83,21,5,22,0.60
2013-1-12,66.8,55.5,44.2,58.7,50.4,41.3,93,84,63,29.98,29.67,17,2,20,0.95
2013-1-13,62.7,37.9,24.0,60.3,34.6,18.5,93,88,77,30.24,29.61,18,5,21,1.20
2013-1-14,27.9,22.1,17.3,19.3,15.5,11.8,82,75,59,30.49,30.24,11,4,14,0.00
2013-1-15,34.2,26.8,20.7,22.7,19.0,15.5,81,73,56,30.44,30.12,13,3,16,0.00
2013-1-16,34.7,30.4,26.1,23.6,22.2,19.6,83,72,55,30.13,30.00,16,4,16,0.00
2013-1-17,43.7,33.4,25.3,30.7,23.5,15.3,79,67,51,30.45,30.12,15,4,18,0.00
2013-1-18,40.7,31.2,20.5,24.5,18.6,15.0,85,62,37,30.53,30.18,18,5,19,0.00
2013-1-19,54.1,46.4,38.8,36.6,29.4,22.5,69,52,43,30.19,29.88,24,10,32,0.00
2013-1-20,45.8,29.3,22.9,36.3,15.0,8.7,71,55,40,30.29,29.93,25,6,28,0.00
2013-1-21,23.9,17.6,11.0,13.9,5.3,-2.9,77,58,45,30.33,30.18,20,7,24,0.00
2013-1-22,20.3,12.2,5.9,0.3,-1.8,-3.7,68,53,36,30.46,30.33,15,6,19,0.00
2013-1-23,24.5,18.4,13.0,12.7,3.9,-2.0,62,52,45,30.42,30.15,15,3,16,0.00
2013-1-24,26.1,20.7,14.6,12.6,5.9,-1.1,78,54,32,30.65,30.21,17,5,21,0.00
2013-1-25,27.9,23.3,19.0,19.1,13.6,3.3,86,67,46,30.43,30.08,15,4,18,0.01
2013-1-26,34.7,25.5,19.0,18.3,16.1,13.3,81,68,48,30.46,30.16,10,2,11,0.02
2013-1-27,38.1,28.9,20.9,35.3,22.3,14.3,90,76,64,30.45,30.09,18,5,21,0.22
2013-1-28,54.2,48.6,38.1,52.4,46.0,35.4,94,91,86,30.13,29.99,17,4,18,0.28
2013-1-29,65.6,59.2,52.6,57.8,54.3,50.4,94,84,76,29.99,29.41,27,8,27,0.00
2013-1-30,67.3,47.0,28.4,58.9,42.3,22.0,93,84,67,29.65,29.25,29,8,40,1.00
2013-1-31,29.6,23.8,11.1,23.1,15.9,4.2,84,71,62,30.18,29.65,33,10,37,0.00
2013-2-1,17.8,12.3,6.6,8.6,3.5,-1.2,76,67,58,30.48,30.18,23,7,23,0.00
2013-2-2,29.4,23.4,17.1,23.7,17.6,8.4,86,78,68,30.34,30.03,16,5,17,0.00
2013-2-3,26.1,19.8,14.5,19.9,14.0,8.8,83,78,72,30.15,30.00,17,4,19,0.00
2013-2-4,39.2,29.2,20.2,31.9,22.4,13.7,87,76,61,30.14,29.82,14,3,14,0.01
2013-2-5,37.5,31.9,25.7,31.2,25.6,21.1,84,78,70,30.06,29.86,16,4,16,0.00
2013-2-6,36.9,31.7,29.7,28.6,24.3,21.0,82,74,61,30.30,30.06,14,3,16,0.00
2013-2-7,54.4,41.7,30.4,42.8,32.4,25.5,89,71,47,30.21,29.81,14,3,14,0.18
2013-2-8,44.7,34.7,31.3,41.6,28.7,22.5,89,79,66,30.38,29.83,18,6,20,0.01
2013-2-9,39.9,32.3,23.3,25.3,22.5,18.9,86,68,55,30.44,30.19,16,4,19,0.00
2013-2-10,51.2,43.2,34.5,47.4,34.1,20.9,87,70,57,30.19,29.72,24,6,24,0.06
2013-2-11,53.1,42.2,34.7,47.6,31.3,24.7,87,66,53,30.07,29.71,28,9,29,0.00
2013-2-12,46.3,35.2,28.0,29.4,26.3,23.2,83,71,48,30.17,29.96,11,3,12,0.00
2013-2-13,46.2,35.3,29.5,29.2,25.3,23.3,83,68,43,29.96,29.80,11,3,12,0.00
2013-2-14,50.3,40.5,34.9,36.1,32.2,27.8,86,73,56,30.02,29.82,20,6,22,0.00
2013-2-15,37.9,32.8,26.1,30.2,24.5,17.3,83,71,54,30.20,30.00,16,4,18,0.00
2013-2-16,27.0,23.7,21.7,19.2,13.7,7.9,80,65,50,30.18,30.13,17,5,18,0.00
2013-2-17,34.4,23.8,14.1,15.9,8.1,0.5,77,53,26,30.29,30.17,12,3,13,0.00
2013-2-18,59.3,42.7,27.8,41.4,28.0,11.4,83,57,37,30.18,29.60,34,9,41,0.17
2013-2-19,47.3,28.5,23.2,42.6,20.1,12.0,86,71,61,30.18,29.59,29,10,34,0.05
2013-2-20,28.5,21.4,13.1,15.2,10.4,4.8,72,62,47,30.37,30.18,16,5,19,0.00
2013-2-21,37.3,26.6,19.9,25.7,18.4,12.0,86,71,52,30.39,30.04,29,7,29,0.01
2013-2-22,37.3,34.0,29.4,33.0,30.1,25.7,92,86,74,30.06,29.87,17,5,18,0.07
2013-2-23,38.2,31.2,25.9,26.6,22.2,19.7,80,69,56,30.03,29.95,13,5,15,0.01
2013-2-24,43.3,32.3,24.3,26.6,22.8,19.8,84,69,47,30.16,30.01,12,2,12,0.00
2013-2-25,50.9,36.9,27.0,28.7,24.5,21.1,79,62,40,30.18,29.88,21,6,22,0.00
2013-2-26,42.7,39.2,34.0,40.4,33.7,24.9,92,82,58,29.89,29.39,25,6,28,0.92
2013-2-27,42.4,35.7,32.8,38.5,31.6,27.7,89,85,77,29.73,29.49,30,8,30,0.01
2013-2-28,39.0,34.8,32.6,32.6,30.5,28.1,90,84,76,30.01,29.71,18,6,18,0.03
2013-3-1,34.7,32.9,31.2,31.1,28.0,24.1,88,82,74,30.09,29.98,11,4,12,0.01
2013-3-2,31.2,29.4,26.6,24.1,21.0,18.3,80,71,60,30.14,30.08,13,5,15,0.00
2013-3-3,36.1,29.3,24.8,23.5,18.6,15.9,82,65,46,30.15,30.09,14,4,16,0.00
2013-3-4,38.4,31.1,19.9,28.0,21.3,16.4,87,68,47,30.17,29.98,21,4,21,0.00
2013-3-5,37.8,35.2,29.5,33.7,30.0,26.9,91,82,66,29.99,29.67,17,5,18,0.14
2013-3-6,32.9,30.3,27.9,28.1,26.4,23.7,90,85,82,30.31,29.78,18,5,22,0.03
2013-3-7,37.0,32.6,29.4,29.3,26.0,23.7,87,77,63,30.42,30.30,8,2,9,0.07
2013-3-8,46.7,35.1,24.9,27.5,24.9,21.3,88,68,42,30.51,30.38,14,3,16,0.01
2013-3-9,54.5,44.4,32.5,34.6,30.1,24.8,75,59,43,30.38,29.97,18,6,19,0.00
2013-3-10,66.6,58.5,51.0,41.5,36.4,32.1,61,45,29,29.97,29.72,21,7,24,0.01
2013-3-11,61.1,46.6,34.4,48.7,40.5,29.5,91,80,47,29.89,29.61,22,8,26,0.12
2013-3-12,43.9,36.4,33.0,30.7,27.0,23.6,84,69,48,30.06,29.89,22,7,22,0.01
2013-3-13,34.4,29.7,25.8,28.0,20.9,17.9,83,70,58,30.37,30.05,19,7,20,0.00
2013-3-14,43.7,33.0,24.7,29.9,21.5,15.7,85,64,35,30.38,30.19,14,4,15,0.00
2013-3-15,50.5,39.8,29.1,41.0,32.4,25.8,90,76,60,30.19,29.75,15,2,16,0.03
2013-3-16,50.4,42.9,35.9,42.1,37.0,29.3,88,80,72,30.06,29.61,16,4,17,0.00
2013-3-17,39.9,35.0,31.6,29.3,26.5,22.7,81,71,61,30.17,29.97,21,7,24,0.01
2013-3-18,43.5,37.5,33.1,40.8,33.9,29.3,92,87,80,29.98,29.61,20,6,22,0.42
2013-3-19,42.3,34.0,26.9,33.6,18.8,14.9,83,55,34,30.14,29.86,25,9,28,0.00
2013-3-20,34.7,29.3,23.8,19.1,13.6,7.7,64,52,38,30.14,30.05,21,6,26,0.00
2013-3-21,35.5,26.6,18.1,16.8,11.2,6.3,75,53,36,30.10,30.01,14,4,16,0.00
2013-3-22,46.0,32.7,21.0,21.2,16.6,12.4,81,55,27,30.10,30.02,11,1,11,0.00
2013-3-23,54.5,42.0,35.4,23.2,20.7,16.5,56,44,26,30.09,29.90,15,2,16,0.00
2013-3-24,39.1,34.4,29.3,31.5,27.4,22.4,90,76,53,29.92,29.46,29,7,33,0.00
2013-3-25,35.4,31.7,28.7,30.1,27.6,25.4,89,85,74,30.03,29.51,15,6,17,0.22
2013-3-26,40.6,34.6,30.7,28.6,26.1,20.8,86,72,49,30.29,30.03,18,6,18,0.02
2013-3-27,44.5,36.1,29.3,28.7,24.3,19.4,83,64,38,30.35,30.28,13,3,15,0.00
2013-3-28,50.2,39.1,27.7,27.7,24.2,20.4,80,57,36,30.39,30.31,13,2,14,0.00
2013-3-29,58.2,43.3,29.7,31.9,27.9,23.3,83,58,30,30.34,30.22,8,1,10,0.00
2013-3-30,59.4,47.0,31.4,35.7,31.5,27.0,85,58,33,30.25,29.93,14,3,17,0.00
2013-3-31,62.0,51.6,46.5,43.6,39.8,35.1,87,66,39,29.93,29.76,25,4,33,0.03
2013-4-1,49.8,41.2,35.3,40.4,23.0,13.7,70,50,28,30.17,29.83,19,6,21,0.00
2013-4-2,46.0,37.5,28.3,20.2,16.4,10.2,68,44,25,30.31,30.17,15,4,16,0.00
2013-4-3,51.7,40.0,27.7,18.9,15.8,10.7,66,39,22,30.44,30.29,15,3,20,0.00
2013-4-4,59.7,45.3,34.7,24.0,18.2,8.2,52,36,14,30.35,30.00,16,3,17,0.00
2013-4-5,63.8,48.6,34.2,32.5,26.2,21.2,70,44,26,30.15,29.99,15,3,16,0.00
2013-4-6,70.7,54.9,41.3,37.8,30.4,22.0,53,40,28,30.16,29.81,24,7,24,0.00
2013-4-7,74.8,66.6,59.5,45.6,40.3,36.3,55,39,28,29.91,29.78,21,6,25,0.00
2013-4-8,72.1,64.3,57.6,56.3,52.7,44.6,80,67,51,29.94,29.81,21,6,24,0.00
2013-4-9,80.4,69.3,55.7,59.3,54.8,50.1,84,62,38,29.98,29.86,26,6,35,0.00
2013-4-10,82.0,71.6,60.0,64.4,60.7,55.8,88,70,53,29.89,29.72,23,6,24,0.04
2013-4-11,67.3,61.4,50.4,60.3,57.0,47.1,92,86,75,29.77,29.52,21,5,22,0.79
2013-4-12,50.2,42.9,38.7,47.0,33.4,29.3,89,70,57,29.94,29.58,22,8,27,0.03
2013-4-13,52.7,45.8,41.4,36.1,33.1,30.6,75,62,46,30.02,29.94,22,7,23,0.00
2013-4-14,71.5,56.5,42.4,45.0,39.5,33.1,79,55,33,30.03,29.80,24,6,24,0.00
2013-4-15,70.5,62.8,55.6,54.4,50.0,43.4,73,63,51,29.95,29.83,17,6,18,0.00
2013-4-16,64.4,56.0,50.6,54.0,50.2,45.8,91,81,66,30.19,29.86,16,4,17,1.43
2013-4-17,74.8,60.3,49.5,66.3,55.0,46.5,90,83,69,30.24,29.87,29,6,36,0.57
2013-4-18,77.7,67.4,61.6,64.3,60.5,57.8,92,79,56,29.87,29.54,26,6,28,0.82
2013-4-19,61.8,41.7,37.7,59.4,34.2,28.6,92,75,64,30.00,29.54,24,9,29,0.77
2013-4-20,49.2,41.2,34.6,33.3,27.2,22.6,82,59,38,30.42,29.99,15,5,16,0.00
2013-4-21,58.7,45.0,32.6,30.2,25.7,19.6,69,48,30,30.55,30.37,20,5,24,0.00
2013-4-22,70.8,55.1,38.5,37.0,30.8,26.3,66,41,25,30.37,30.09,17,3,20,0.00
2013-4-23,67.0,60.1,55.1,56.6,47.3,37.0,88,64,42,30.10,29.77,17,4,20,0.46
2013-4-24,58.0,44.7,38.9,55.1,37.6,30.3,92,77,52,30.23,29.78,20,5,20,1.00
2013-4-25,56.2,46.1,35.1,37.7,31.4,23.3,84,59,31,30.38,30.22,20,5,26,0.01
2013-4-26,64.3,50.6,36.2,39.0,33.7,30.8,83,55,34,30.45,30.31,14,3,16,0.00
2013-4-27,62.6,54.0,43.8,51.2,42.1,33.6,86,66,39,30.34,29.99,18,4,21,0.05
2013-4-28,62.2,57.1,54.6,56.6,53.8,50.9,92,89,80,29.99,29.83,12,4,14,0.14
2013-4-29,69.0,60.5,55.9,54.9,52.9,50.1,92,77,54,29.99,29.88,16,4,17,0.00
2013-4-30,80.7,67.4,53.9,59.3,53.7,48.8,84,64,47,30.01,29.90,16,5,21,0.00
2013-5-1,84.4,71.9,55.9,57.0,53.2,48.8,83,54,31,30.12,30.00,16,3,17,0.00
2013-5-2,78.1,70.7,64.0,56.6,53.4,50.5,71,55,40,30.16,30.02,22,5,25,0.00
2013-5-3,74.5,67.9,61.7,62.1,55.7,46.1,84,66,46,30.04,29.87,24,5,27,0.16
2013-5-4,68.3,62.4,56.0,52.2,45.7,39.8,86,56,41,30.00,29.90,19,7,22,0.03
2013-5-5,60.7,56.6,54.2,53.9,50.9,47.6,90,82,65,30.01,29.92,24,4,25,0.15
2013-5-6,69.5,60.7,53.4,57.2,52.4,47.2,89,75,60,29.96,29.88,21,4,23,0.09
2013-5-7,76.8,66.8,57.5,58.4,53.5,50.8,88,65,43,29.98,29.91,16,2,17,0.04
2013-5-8,81.0,68.5,58.0,60.0,55.9,50.1,92,67,37,30.00,29.93,11,2,13,0.02
2013-5-9,80.5,65.3,57.2,59.8,55.6,50.0,90,73,36,29.99,29.88,23,2,28,0.74
2013-5-10,69.3,62.1,50.2,61.3,57.8,44.9,93,86,71,29.91,29.78,13,3,14,0.29
2013-5-11,64.7,52.3,45.8,51.6,43.1,31.4,89,73,35,30.03,29.87,20,5,22,0.00
2013-5-12,58.0,49.9,41.1,39.5,30.4,24.7,72,49,28,30.13,30.03,19,5,25,0.00
2013-5-13,65.3,53.5,38.8,39.4,31.0,23.1,84,47,22,30.21,30.10,16,3,19,0.00
2013-5-14,85.5,68.1,53.6,60.5,47.0,34.4,64,47,37,30.11,29.79,21,6,22,0.00
2013-5-15,86.8,78.2,70.6,61.5,58.1,54.3,65,51,38,29.86,29.76,24,7,27,0.00
2013-5-16,81.5,73.3,67.0,65.1,62.1,57.1,86,69,46,29.94,29.80,20,4,22,0.01
2013-5-17,84.5,70.2,65.1,65.1,62.2,58.3,88,77,43,30.02,29.94,20,2,20,0.58
2013-5-18,82.4,71.5,65.0,65.7,63.3,61.3,90,77,53,30.04,29.93,15,2,15,0.08
2013-5-19,85.0,75.0,63.7,66.8,64.4,60.8,92,72,50,29.96,29.81,15,3,15,0.00
2013-5-20,84.5,77.7,70.8,69.0,67.5,65.2,90,72,54,29.92,29.79,20,6,21,0.00
2013-5-21,83.8,73.9,63.3,67.3,62.9,59.9,90,70,47,29.88,29.73,22,6,30,0.13
2013-5-22,75.7,69.5,63.5,64.6,61.3,58.6,88,76,59,29.77,29.69,19,6,22,0.18
2013-5-23,66.8,59.9,50.1,60.7,53.1,43.1,88,78,66,30.15,29.76,18,6,19,0.02
2013-5-24,69.7,55.7,45.6,43.6,39.4,31.4,84,59,27,30.37,30.15,13,4,14,0.00
2013-5-25,66.8,57.1,47.4,48.4,41.5,34.3,79,58,32,30.38,30.19,9,2,10,0.00
2013-5-26,69.0,60.7,54.3,52.7,46.3,38.7,85,60,47,30.29,30.15,13,3,15,0.01
2013-5-27,81.7,67.4,56.9,64.5,58.1,52.3,87,74,53,30.18,29.83,20,6,22,0.22
2013-5-28,82.3,74.0,64.5,67.0,63.8,60.2,87,72,56,29.95,29.85,24,6,26,0.00
2013-5-29,86.4,78.2,69.5,63.5,60.9,58.1,71,56,40,30.01,29.90,19,6,24,0.00
2013-5-30,86.3,78.8,71.7,70.0,64.7,62.3,73,63,50,30.04,29.91,24,7,26,0.02
2013-5-31,77.8,72.5,64.8,68.6,65.9,61.1,91,80,69,29.99,29.83,16,5,22,0.64
2013-6-1,76.0,70.4,64.7,68.3,63.9,61.6,92,80,67,29.88,29.74,21,6,27,0.75
2013-6-2,71.2,66.1,59.4,63.2,58.2,51.4,86,76,65,29.97,29.78,16,5,16,0.00
2013-6-3,71.8,60.1,49.4,51.4,45.9,41.3,79,61,40,30.09,29.97,13,3,14,0.00
2013-6-4,79.3,65.5,51.8,48.9,44.9,39.8,77,50,26,30.14,30.03,18,4,22,0.00
2013-6-5,84.3,71.0,58.8,59.4,51.9,46.1,70,52,35,30.06,29.83,13,3,15,0.00
2013-6-6,81.1,70.5,64.0,60.3,55.2,49.6,73,59,47,29.84,29.75,11,2,11,0.00
2013-6-7,78.2,69.5,62.0,61.3,56.5,54.3,82,64,47,29.86,29.79,12,3,14,0.00
2013-6-8,79.9,69.9,60.2,61.4,56.5,52.8,80,64,47,29.99,29.84,13,3,15,0.00
2013-6-9,81.8,72.9,66.0,66.7,60.6,53.4,85,67,41,30.00,29.80,15,3,16,0.01
2013-6-10,76.8,70.3,65.2,66.8,62.6,59.3,91,77,59,29.84,29.75,15,4,16,0.49
2013-6-11,85.8,75.1,63.8,66.6,62.5,59.4,87,67,46,29.96,29.84,13,3,16,0.01
2013-6-12,90.3,81.6,71.9,73.4,70.3,65.9,86,70,55,29.90,29.62,17,4,19,0.00
2013-6-13,85.0,74.9,65.2,70.9,61.2,50.9,89,64,38,29.96,29.57,27,7,27,0.35
2013-6-14,85.6,71.4,58.3,60.2,55.3,52.1,84,59,36,30.05,29.92,12,3,14,0.00
2013-6-15,85.5,73.8,61.8,63.4,59.2,56.5,85,63,40,30.08,29.91,20,3,20,0.00
2013-6-16,80.6,73.3,67.5,67.9,64.4,60.1,85,74,64,29.98,29.88,22,5,28,0.02
2013-6-17,88.8,76.7,67.8,71.8,65.7,60.4,93,72,41,29.95,29.84,17,2,17,0.00
2013-6-18,90.1,77.2,66.9,65.4,61.2,54.6,82,60,34,29.95,29.84,14,3,18,0.00
2013-6-19,87.1,74.3,63.1,59.8,57.2,55.1,78,57,38,30.08,29.95,16,3,16,0.00
2013-6-20,88.3,76.4,64.6,62.1,58.1,54.8,80,55,35,30.16,30.07,13,2,14,0.00
2013-6-21,89.5,79.3,68.0,65.8,60.5,55.8,69,54,34,30.16,30.00,13,3,13,0.00
2013-6-22,90.0,78.3,72.2,70.5,67.0,64.4,82,69,49,30.10,30.00,16,4,18,0.00
2013-6-23,87.0,75.0,67.4,70.7,66.7,62.2,90,76,54,30.09,30.01,22,3,22,0.00
2013-6-24,87.3,77.3,70.0,71.8,67.9,64.1,90,74,48,30.11,29.97,12,4,14,0.44
2013-6-25,90.5,79.5,69.7,73.2,69.5,64.5,85,73,52,29.99,29.83,17,5,25,0.09
2013-6-26,83.0,73.6,67.0,72.4,66.9,63.9,90,80,61,29.89,29.71,17,4,18,0.26
2013-6-27,90.5,79.8,69.0,70.7,67.8,65.3,91,69,48,29.77,29.66,17,4,17,0.00
2013-6-28,87.6,76.9,67.0,67.7,63.0,55.6,85,64,37,29.68,29.57,25,5,25,0.62
2013-6-29,77.0,69.0,64.6,66.9,62.8,60.7,88,81,64,29.65,29.56,8,2,9,0.42
2013-6-30,80.8,69.9,65.3,65.0,62.6,61.1,90,78,53,29.85,29.64,15,3,17,0.15
2013-7-1,76.0,68.7,66.5,66.2,61.6,58.8,88,78,67,29.93,29.82,18,4,18,0.53
2013-7-2,79.1,67.9,61.8,68.2,62.6,58.8,92,84,65,29.99,29.91,24,2,24,1.07
2013-7-3,79.8,70.0,61.6,64.6,62.3,59.5,94,78,56,30.08,29.98,15,3,15,0.01
2013-7-4,79.7,71.0,63.5,66.7,64.0,60.4,91,79,61,30.12,30.03,15,1,15,0.00
2013-7-5,82.2,73.4,66.0,67.7,65.1,63.2,93,76,56,30.11,30.02,13,2,14,0.00
2013-7-6,73.9,71.5,68.9,68.1,65.8,61.8,91,83,70,30.08,30.01,14,2,16,0.08
2013-7-7,84.9,73.7,64.6,68.9,65.3,61.8,92,77,53,30.08,29.99,10,2,12,0.00
2013-7-8,86.7,79.0,70.6,73.4,69.3,66.0,86,73,59,30.09,29.99,14,4,16,0.00
2013-7-9,89.5,81.5,76.7,75.7,72.0,68.5,84,73,59,30.03,29.92,17,4,22,0.00
2013-7-10,84.4,78.8,70.5,75.2,70.9,64.6,85,77,62,29.94,29.80,21,4,22,0.05
2013-7-11,83.3,74.8,66.5,65.0,56.2,52.9,69,54,37,30.02,29.92,18,4,22,0.00
2013-7-12,87.0,74.7,62.7,59.8,55.8,52.3,77,54,33,30.10,30.01,18,3,21,0.00
2013-7-13,88.8,76.8,64.9,63.4,60.7,57.6,81,59,39,30.10,30.03,21,5,23,0.00
2013-7-14,91.3,81.1,70.2,71.1,67.1,63.1,81,64,47,30.16,30.09,15,4,16,0.00
2013-7-15,89.6,82.5,75.7,71.6,69.6,67.5,82,66,51,30.26,30.16,14,3,15,0.00
2013-7-16,94.9,83.9,73.4,72.5,70.1,67.9,85,65,44,30.30,30.22,8,2,10,0.00
2013-7-17,98.0,86.3,75.6,73.2,70.3,65.7,88,62,37,30.30,30.14,10,2,11,0.00
2013-7-18,95.3,85.6,75.2,73.2,70.8,64.9,88,64,42,30.17,29.97,12,2,13,0.00
2013-7-19,92.8,84.5,77.1,74.2,72.3,69.0,85,68,48,30.00,29.83,17,5,18,0.00
2013-7-20,83.0,75.6,70.5,73.2,68.9,65.6,88,80,69,29.89,29.81,19,4,22,0.18
2013-7-21,86.6,76.1,68.3,71.6,68.0,64.9,91,77,57,29.95,29.84,10,2,11,0.00
2013-7-22,85.6,76.1,69.8,70.6,68.0,66.2,90,77,56,29.86,29.74,19,2,19,0.06
2013-7-23,91.8,78.5,69.0,73.8,67.2,56.5,90,71,42,29.86,29.72,18,5,18,0.00
2013-7-24,80.7,69.1,59.0,56.8,53.2,50.6,80,59,38,30.00,29.85,14,4,16,0.00
2013-7-25,83.7,71.0,59.0,55.1,52.0,47.3,77,54,31,30.08,29.99,15,2,18,0.00
2013-7-26,80.0,71.1,60.1,62.4,57.1,53.4,81,63,43,30.07,29.92,14,3,15,0.00
2013-7-27,77.9,70.2,62.1,64.0,58.2,49.9,91,68,41,29.93,29.83,20,6,20,0.41
2013-7-28,73.0,64.7,54.8,54.4,49.8,47.4,80,60,43,30.03,29.91,19,5,20,0.00
2013-7-29,79.7,68.4,56.5,56.3,53.5,50.3,88,62,38,30.16,30.03,13,2,15,0.00
2013-7-30,75.4,68.8,59.8,64.9,59.0,54.9,85,72,54,30.19,30.08,9,2,10,0.01
2013-7-31,75.7,70.2,65.2,69.2,64.9,60.7,91,84,77,30.09,29.91,9,2,10,0.02
2013-8-1,84.7,74.9,65.7,67.6,60.4,51.3,90,64,33,29.99,29.92,20,4,21,0.00
2013-8-2,84.3,72.1,59.9,65.2,60.3,54.6,86,68,46,29.98,29.91,20,4,22,0.00
2013-8-3,86.2,74.7,67.8,67.7,63.4,53.4,92,70,41,30.05,29.91,14,3,16,0.46
2013-8-4,85.2,72.0,61.3,56.6,52.8,47.9,72,53,31,30.14,30.05,16,3,16,0.00
2013-8-5,81.2,71.1,60.6,61.3,56.7,53.3,85,63,40,30.10,29.91,12,3,14,0.00
2013-8-6,79.8,73.9,69.0,70.5,65.4,60.4,83,75,70,29.93,29.86,9,2,12,0.00
2013-8-7,84.7,77.0,70.9,72.5,70.5,68.4,93,81,63,29.90,29.82,13,3,13,0.00
2013-8-8,87.0,78.3,73.3,73.3,71.2,68.5,90,80,57,29.91,29.85,13,2,13,0.06
2013-8-9,88.3,76.7,70.1,69.6,66.0,61.7,91,72,43,30.01,29.88,11,2,13,0.01
2013-8-10,87.1,77.6,70.0,67.6,64.3,60.7,85,65,46,30.08,30.00,11,2,13,0.00
2013-8-11,87.7,77.6,68.5,67.3,63.9,58.3,88,65,41,30.08,30.01,10,2,12,0.00
2013-8-12,85.2,76.2,68.4,66.3,63.8,58.2,87,67,42,30.05,29.85,12,3,13,0.00
2013-8-13,78.7,71.4,61.1,67.8,58.2,47.1,85,65,44,30.08,29.84,18,5,21,0.00
2013-8-14,74.9,64.3,55.1,49.1,46.9,43.0,74,55,36,30.19,30.08,16,3,17,0.00
2013-8-15,77.6,65.5,53.4,51.6,49.0,45.7,83,58,37,30.17,30.08,15,2,18,0.00
2013-8-16,80.3,68.5,60.0,56.2,52.4,48.6,75,58,35,30.16,30.10,17,3,19,0.00
2013-8-17,83.2,72.9,64.1,57.3,54.8,53.3,70,54,40,30.18,30.11,19,3,19,0.00
2013-8-18,86.5,76.9,61.7,62.0,58.2,54.8,84,54,38,30.16,30.06,16,2,17,0.00
2013-8-19,88.8,74.7,61.7,63.9,60.1,57.6,88,63,38,30.12,30.02,9,1,9,0.00
2013-8-20,89.4,75.8,65.0,66.8,62.5,58.8,87,66,39,30.13,30.03,15,2,16,0.00
2013-8-21,89.2,78.7,69.5,70.3,66.6,63.6,88,68,44,30.12,30.01,13,2,14,0.00
2013-8-22,88.6,78.0,70.1,68.7,66.6,64.3,87,69,49,30.07,29.98,15,3,17,0.00
2013-8-23,88.4,77.7,68.7,67.4,64.1,58.8,84,65,39,30.11,30.03,14,3,15,0.00
2013-8-24,92.3,76.9,63.5,61.4,56.4,51.8,77,52,27,30.24,30.11,14,2,14,0.00
2013-8-25,92.2,76.3,62.7,62.1,58.1,52.9,84,57,30,30.29,30.17,10,2,11,0.00
2013-8-26,89.7,78.0,66.0,72.6,65.8,59.1,83,67,47,30.21,30.04,15,3,15,0.00
2013-8-27,93.0,81.5,72.9,73.3,70.9,69.0,89,72,48,30.06,29.92,17,4,17,0.00
2013-8-28,95.4,84.0,75.9,75.1,71.3,67.0,82,67,49,29.95,29.86,15,6,17,0.00
2013-8-29,93.0,81.4,73.2,71.1,68.1,62.7,88,67,39,30.02,29.93,14,3,16,0.00
2013-8-30,94.4,81.7,69.9,72.1,68.4,65.2,86,66,44,29.96,29.78,14,2,14,0.00
2013-8-31,96.5,80.1,71.6,73.8,68.6,65.2,89,70,47,29.83,29.69,30,4,30,0.38
2013-9-1,85.2,75.8,69.0,71.5,68.3,65.3,90,79,61,29.79,29.71,13,3,14,0.01
2013-9-2,86.7,76.1,70.3,69.9,65.3,58.8,91,72,42,29.90,29.75,16,3,17,0.00
2013-9-3,78.3,68.5,58.3,59.5,53.2,49.6,76,60,41,30.06,29.89,13,3,15,0.00
2013-9-4,85.0,70.4,56.9,59.7,56.2,53.3,89,64,36,30.14,30.03,10,2,10,0.00
2013-9-5,89.6,74.9,62.5,63.4,60.0,57.8,87,63,39,30.17,30.10,10,2,11,0.00
2013-9-6,85.9,73.0,60.8,60.1,54.4,48.6,66,53,38,30.21,30.05,13,3,15,0.00
2013-9-7,87.6,75.6,62.3,67.4,61.5,56.1,81,63,44,30.06,29.91,13,3,15,0.01
2013-9-8,91.9,79.7,70.7,71.3,66.7,60.2,87,67,38,29.95,29.88,15,2,16,0.00
2013-9-9,92.3,80.9,69.7,72.3,68.5,65.2,87,68,48,29.98,29.88,16,4,16,0.00
2013-9-10,96.5,83.8,77.1,73.8,69.9,65.0,83,65,39,30.07,29.95,18,3,21,0.00
2013-9-11,94.3,82.8,73.5,72.1,67.1,60.6,87,62,34,30.10,29.97,17,4,18,0.00
2013-9-12,83.3,75.8,66.7,69.8,64.9,49.6,90,71,39,29.98,29.85,19,4,21,0.20
2013-9-13,69.8,62.9,56.6,54.1,45.9,40.8,74,55,37,30.10,29.96,18,5,18,0.00
2013-9-14,74.3,60.1,47.4,43.6,40.4,33.8,77,51,26,30.19,30.07,12,2,14,0.00
2013-9-15,76.8,63.7,49.1,57.2,47.9,41.5,80,58,35,30.12,29.99,15,3,18,0.00
2013-9-16,73.8,63.8,58.8,55.9,53.6,49.0,85,70,50,30.27,30.06,15,4,16,0.00
2013-9-17,78.8,64.5,53.2,53.4,50.0,47.1,81,61,37,30.31,30.13,18,4,22,0.00
2013-9-18,81.6,73.1,63.1,65.5,60.1,51.9,80,64,53,30.14,30.00,12,4,13,0.00
2013-9-19,81.9,72.4,65.8,70.5,66.7,63.1,92,83,67,30.08,29.90,15,4,21,0.94
2013-9-20,79.5,73.0,67.5,69.0,67.3,64.4,91,83,69,29.93,29.78,14,4,16,0.17
2013-9-21,73.8,64.2,55.5,64.9,51.2,42.3,91,66,34,29.90,29.75,17,4,17,0.18
2013-9-22,72.5,59.9,48.3,50.0,46.6,43.4,89,64,38,30.01,29.89,11,2,14,0.00
2013-9-23,75.0,60.8,48.6,48.7,45.8,42.8,82,60,35,30.11,30.00,17,3,17,0.00
2013-9-24,80.8,64.0,49.9,57.1,50.9,44.6,82,64,43,30.06,29.87,14,4,15,0.00
2013-9-25,83.8,69.4,58.5,59.6,53.0,47.6,76,58,38,29.91,29.84,12,2,14,0.00
2013-9-26,83.2,66.6,53.0,55.6,51.7,47.6,85,62,33,30.05,29.91,14,1,15,0.00
2013-9-27,85.3,68.0,53.6,55.3,50.1,42.6,84,57,25,30.16,30.05,12,1,15,0.00
2013-9-28,82.3,67.9,53.2,58.9,54.3,49.1,87,64,40,30.14,30.00,15,2,18,0.00
2013-9-29,68.7,64.4,61.8,61.9,59.4,56.1,92,84,67,30.02,29.96,11,2,11,0.51
2013-9-30,72.6,65.8,62.0,62.5,60.9,59.6,93,85,70,30.01,29.92,14,2,15,0.05
2013-10-1,77.0,67.3,60.2,63.3,61.4,57.6,92,82,61,30.06,29.97,11,2,13,0.01
2013-10-2,78.7,70.0,64.3,67.9,64.9,60.9,92,84,69,30.08,30.00,9,1,10,0.00
2013-10-3,82.3,73.1,67.4,67.7,65.6,62.8,91,79,54,30.04,29.93,15,3,18,0.02
2013-10-4,81.8,73.1,67.1,70.2,66.7,64.0,91,81,66,30.04,29.96,13,2,13,0.02
2013-10-5,74.1,71.1,66.1,69.7,67.4,63.0,92,88,81,30.01,29.85,14,3,17,0.79
2013-10-6,66.5,60.1,50.1,64.0,55.4,39.8,93,85,61,29.87,29.73,19,4,23,1.04
2013-10-7,63.4,53.8,46.8,48.2,44.5,40.8,86,72,53,30.15,29.81,17,4,17,0.01
2013-10-8,74.9,57.8,45.6,49.9,45.6,42.8,91,68,36,30.26,30.15,15,2,21,0.00
2013-10-9,76.4,59.4,46.7,52.8,47.0,41.6,86,66,39,30.23,30.13,10,1,10,0.00
2013-10-10,79.0,60.6,48.3,51.9,48.7,44.6,90,69,36,30.19,30.06,9,1,9,0.00
2013-10-11,78.3,61.3,47.6,55.0,49.0,44.5,90,68,34,30.10,30.00,7,1,8,0.00
2013-10-12,77.5,63.3,49.4,60.8,53.8,46.3,90,74,47,30.10,30.01,13,1,13,0.01
2013-10-13,73.6,64.8,55.2,61.8,45.8,36.6,87,53,27,30.33,30.10,13,4,14,0.00
2013-10-14,74.3,57.9,45.2,49.4,43.2,39.9,83,61,33,30.35,30.16,11,2,12,0.00
2013-10-15,66.8,60.9,54.4,61.6,54.9,43.8,90,81,63,30.17,29.89,14,3,15,0.02
2013-10-16,65.2,58.0,48.5,61.5,48.2,40.9,90,71,51,29.97,29.86,14,4,15,0.01
2013-10-17,55.4,48.4,42.8,47.7,42.8,39.4,90,81,65,29.97,29.89,16,2,17,0.06
2013-10-18,66.0,52.9,43.0,47.8,42.8,39.5,90,71,43,30.00,29.91,20,4,20,0.00
2013-10-19,53.7,46.7,42.5,42.0,38.5,33.8,88,74,48,29.98,29.87,19,3,19,0.27
2013-10-20,64.0,50.9,40.7,42.7,39.0,35.1,82,66,42,30.00,29.92,19,5,22,0.00
2013-10-21,62.6,52.0,42.1,47.1,41.9,28.4,79,69,54,30.01,29.89,17,4,18,0.00
2013-10-22,52.0,42.1,31.8,38.3,30.9,26.4,86,67,38,30.06,29.82,13,2,15,0.01
2013-10-23,50.4,41.0,35.2,37.4,32.8,26.5,89,74,44,30.07,29.79,15,4,18,0.16
2013-10-24,41.7,39.1,36.0,35.2,31.8,26.8,86,75,63,30.31,30.06,14,4,15,0.04
2013-10-25,50.9,39.8,30.7,29.9,25.8,22.3,80,60,34,30.47,30.27,14,3,14,0.00
2013-10-26,57.0,44.2,34.8,39.9,31.2,25.7,70,61,50,30.27,29.93,19,5,24,0.00
2013-10-27,57.6,43.3,30.9,38.1,31.8,27.7,90,67,35,30.12,30.04,11,1,14,0.00
2013-10-28,64.1,45.7,31.5,38.0,32.6,28.3,89,65,30,30.31,30.09,10,0,11,0.00
2013-10-29,56.0,47.4,38.0,45.6,39.3,33.6,86,74,61,30.36,30.20,8,1,10,0.04
2013-10-30,63.9,57.1,50.1,61.5,54.5,45.7,93,91,84,30.20,29.94,10,2,12,0.12
2013-10-31,66.7,62.4,56.3,62.3,58.5,51.8,92,87,78,29.95,29.27,32,7,42,1.20
2013-11-1,58.9,52.3,47.2,51.6,44.2,39.4,87,75,58,29.77,29.40,19,6,22,0.02
2013-11-2,54.1,47.9,44.1,42.3,38.8,34.6,86,72,51,30.14,29.76,15,4,19,0.00
2013-11-3,55.0,44.9,34.9,41.4,35.3,31.7,90,71,45,30.34,30.13,14,2,14,0.00
2013-11-4,53.9,48.4,42.1,42.4,38.0,34.3,76,68,58,30.35,30.26,16,4,17,0.00
2013-11-5,58.4,53.4,49.2,46.1,43.6,40.2,86,70,61,30.37,30.13,12,3,12,0.02
2013-11-6,60.7,54.1,42.3,53.9,46.4,37.9,90,76,59,30.14,29.92,19,7,20,0.25
2013-11-7,50.3,42.1,34.3,37.8,30.0,23.8,84,64,37,30.32,30.11,18,5,19,0.00
2013-11-8,52.7,41.2,30.1,32.5,29.1,26.7,88,65,40,30.40,30.20,10,2,10,0.00
2013-11-9,61.5,51.5,42.6,41.2,35.1,26.6,66,54,45,30.20,29.99,23,7,23,0.00
2013-11-10,49.7,43.3,34.0,38.7,31.6,29.1,83,64,48,30.36,30.12,17,4,17,0.00
2013-11-11,51.3,40.9,30.9,40.6,33.0,27.2,88,74,53,30.37,30.10,20,4,23,0.04
2013-11-12,38.8,31.8,27.1,28.1,21.7,19.0,87,67,45,30.68,30.37,16,5,18,0.01
2013-11-13,39.5,30.6,22.9,20.6,18.2,14.4,82,62,36,30.67,30.38,14,3,17,0.00
2013-11-14,54.3,41.4,30.3,22.9,19.6,14.0,65,44,21,30.38,30.12,18,5,22,0.00
2013-11-15,53.5,46.3,40.9,37.6,26.7,20.3,79,47,39,30.13,30.05,14,4,15,0.00
2013-11-16,61.1,52.4,43.7,57.5,48.0,37.6,90,85,77,30.07,29.75,22,6,24,0.01
2013-11-17,67.4,60.0,50.4,61.0,53.6,40.3,92,80,55,29.80,29.39,34,8,42,1.39
2013-11-18,50.6,45.2,36.3,41.4,32.8,22.0,81,63,37,30.23,29.80,24,7,25,0.00
2013-11-19,44.6,37.0,31.1,29.6,27.2,25.0,79,68,52,30.37,30.23,14,3,16,0.00
2013-11-20,47.7,39.3,29.7,33.3,28.7,24.0,80,67,54,30.34,30.18,17,4,19,0.00
2013-11-21,53.2,48.2,44.3,47.5,41.6,32.9,90,79,58,30.28,30.17,11,2,13,0.19
2013-11-22,51.1,44.8,34.6,48.8,40.7,28.6,92,86,75,30.44,30.16,18,5,19,0.07
2013-11-23,34.5,28.4,21.1,28.9,19.4,10.4,84,69,52,30.65,30.42,19,6,21,0.00
2013-11-24,29.6,22.2,16.1,13.1,10.1,6.4,74,60,40,30.75,30.55,12,2,13,0.00
2013-11-25,34.1,28.3,20.6,22.2,15.1,11.7,69,58,45,30.56,30.19,14,4,16,0.00
2013-11-26,36.9,33.8,30.6,27.9,25.3,22.2,81,71,60,30.22,29.99,19,4,20,0.00
2013-11-27,30.7,24.6,19.6,25.0,15.6,11.4,79,69,54,30.33,30.03,17,6,18,0.00
2013-11-28,38.6,27.5,19.4,20.6,15.1,12.2,75,60,39,30.48,30.27,18,4,18,0.00
2013-11-29,39.5,30.4,20.2,22.8,19.6,15.2,83,65,48,30.66,30.48,12,2,13,0.00
2013-11-30,51.7,38.5,28.1,29.3,24.5,20.6,76,58,40,30.51,30.15,15,2,17,0.00
2013-12-1,53.7,41.8,30.0,37.1,30.8,23.8,81,66,52,30.15,29.96,12,2,12,0.00
2013-12-2,49.7,42.5,36.8,39.4,35.5,31.0,85,76,66,29.97,29.77,13,3,13,0.02
2013-12-3,50.1,44.5,36.0,46.3,41.1,32.8,92,88,84,29.84,29.77,14,3,15,0.00
2013-12-4,62.2,54.3,46.7,56.6,51.1,43.3,93,89,81,29.81,29.63,15,4,18,0.01
2013-12-5,62.3,38.9,24.5,56.5,33.3,21.5,88,80,74,30.24,29.71,17,5,17,0.02
2013-12-6,28.1,25.5,24.0,22.0,20.9,18.5,89,82,76,30.48,30.21,12,4,14,0.00
2013-12-7,28.1,20.4,14.3,18.5,12.7,9.0,80,72,54,30.68,30.47,11,3,11,0.10
2013-12-8,29.6,24.7,19.4,27.3,19.6,13.1,91,81,73,30.57,30.03,19,6,22,0.00
2013-12-9,30.2,26.3,21.5,27.8,20.4,13.9,91,78,67,30.29,30.02,19,6,19,0.00
2013-12-10,27.6,21.6,15.4,16.2,13.1,9.4,84,70,52,30.39,30.20,25,5,25,0.00
2013-12-11,31.0,20.3,12.3,22.0,13.9,5.3,85,76,65,30.59,30.35,16,4,18,0.01
2013-12-12,22.9,14.4,6.5,5.6,1.3,-2.0,75,57,34,30.62,30.38,17,4,17,0.00
2013-12-13,36.1,26.2,15.7,29.9,16.6,3.4,90,67,51,30.38,30.14,17,2,18,0.00
2013-12-14,35.9,32.7,27.8,33.6,30.2,24.7,92,90,87,30.15,29.75,14,4,15,0.31
2013-12-15,29.0,24.1,19.3,25.5,18.1,12.4,88,78,68,30.15,29.96,20,7,21,0.00
2013-12-16,29.0,25.3,20.7,26.1,21.8,17.2,89,87,84,30.15,30.02,10,1,11,0.00
2013-12-17,29.1,26.3,22.4,26.4,22.7,19.1,90,86,80,30.19,30.05,14,4,15,0.01
2013-12-18,37.2,29.2,19.9,22.9,17.9,14.1,86,64,41,30.29,30.03,12,4,13,0.03
2013-12-19,52.4,46.3,35.3,44.8,35.9,19.8,77,67,52,30.04,29.89,14,4,14,0.00
2013-12-20,60.1,55.7,50.3,56.7,50.9,44.7,92,84,75,29.89,29.74,18,6,20,0.60
2013-12-21,52.3,43.6,38.5,49.1,41.2,36.1,93,91,89,29.82,29.44,15,2,17,2.18
2013-12-22,56.6,39.9,32.6,54.8,36.8,28.6,95,89,84,30.11,29.32,22,7,26,0.02
2013-12-23,32.7,26.8,17.0,28.7,20.6,8.6,85,77,67,30.47,30.11,15,6,16,0.00
2013-12-24,21.3,14.8,7.6,12.1,6.8,1.1,77,70,58,30.64,30.47,15,4,15,0.00
2013-12-25,31.2,25.3,19.0,24.7,16.8,11.9,79,70,61,30.50,30.22,17,5,17,0.00
2013-12-26,37.9,32.3,26.3,27.0,23.0,20.0,83,69,56,30.41,30.20,21,4,21,0.00
2013-12-27,47.1,37.5,30.1,32.5,28.1,23.2,79,69,56,30.41,30.27,11,4,13,0.00
2013-12-28,53.5,42.6,36.0,34.7,30.9,27.6,80,65,41,30.27,29.98,14,4,15,0.00
2013-12-29,45.8,37.4,27.4,34.1,29.4,23.0,87,73,60,30.11,29.83,17,4,20,0.00
2013-12-30,27.2,19.3,18.8,99.9,27.2,10.7,84,59,58,30.32,30.11,14,-148,17,0.00
2013-12-31,33.0,23.4,21.3,99.9,29.0,12.2,75,52,52,30.41,30.22,16,-147,19,0.00
2014-1-1,42.4,29.4,22.1,99.9,31.7,17.0,85,66,61,30.29,30.04,9,-92,11,0.00
2014-1-2,30.6,16.4,11.0,99.9,26.2,2.6,88,69,67,30.39,29.93,19,-135,21,0.00